CYYY

Mont Joli Airport

Mont-Joli, Quebec, Canada
TAF CYYY 251338Z 2514/2602 17015G25KT P6SM BKN220 FM251900 18018G28KT P6SM SCT050 BKN140 FM252200 19015G25KT P6SM -SHRA OVC040 FM260100 19015KT 6SM -RA BR FEW015 OVC025 RMK NXT FCST BY 252000Z
Issued Valid From Valid To
Sep-25 @ 13:38 UTC
(3 hours ago)
Sep-25 @ 14:00 UTC
(3 hours ago)
Sep-26 @ 02:00 UTC
(in 9 hours)
Sep-25 @ 14:00 to Sep-25 @ 19:00
TAF CYYY 251338Z 2514/2602 17015G25KT P6SM BKN220
Wind Visibility Clouds
170° at 15 knots
 Gusting to 25 knots
Greater than 6 miles
  • Broken at 22,000' AGL
From Sep-25 @ 19:00 to Sep-25 @ 22:00
FM251900 18018G28KT P6SM SCT050 BKN140
Wind Visibility Clouds
180° at 18 knots
 Gusting to 28 knots
Greater than 6 miles
  • Scattered at 5,000' AGL
  • Broken at 14,000' AGL
From Sep-25 @ 22:00 to Sep-26 @ 01:00
FM252200 19015G25KT P6SM -SHRA OVC040
Wind Visibility Clouds Conditions
190° at 15 knots
 Gusting to 25 knots
Greater than 6 miles
  • Overcast at 4,000' AGL
  • Light Rain
From Sep-26 @ 01:00 to Sep-26 @ 02:00
FM260100 19015KT 6SM -RA BR FEW015 OVC025 RMK NXT FCST BY 252000Z
Wind Visibility Clouds Conditions
190° at 15 knots 6 miles
  • Few at 1,500' AGL
  • Overcast at 2,500' AGL
  • Light Rain
  • Mist
TAF CYYY 251338Z 2514/2602 17015G25KT P6SM BKN220 FM251900 18018G28KT P6SM SCT050 BKN140 FM252200 19015G25KT P6SM -SHRA OVC040 FM260100 19015KT 6SM -RA BR FEW015 OVC025 RMK NXT FCST BY 252000Z
Issued Sep-25 @ 13:38 UTC
(3 hours ago)
Valid From Sep-25 @ 14:00 UTC
(3 hours ago)
Valid To Sep-26 @ 02:00 UTC
(in 9 hours)
Sep-25 @ 14:00 - Sep-25 @ 19:00
Wind Visibility
170° at 15 knots
 Gusting to 25 knots
Greater than 6 miles
Clouds
  • Broken at 22,000' AGL
From Sep-25 @ 19:00 - Sep-25 @ 22:00
Wind Visibility
180° at 18 knots
 Gusting to 28 knots
Greater than 6 miles
Clouds
  • Scattered at 5,000' AGL
  • Broken at 14,000' AGL
From Sep-25 @ 22:00 - Sep-26 @ 01:00
Wind Visibility
190° at 15 knots
 Gusting to 25 knots
Greater than 6 miles
Clouds
  • Overcast at 4,000' AGL
Conditions
  • Light Rain
From Sep-26 @ 01:00 - Sep-26 @ 02:00
Wind Visibility
190° at 15 knots 6 miles
Clouds
  • Few at 1,500' AGL
  • Overcast at 2,500' AGL
Conditions
  • Light Rain
  • Mist